sensor_id;sensor_type;location;lat;lon;timestamp;P1;durP1;ratioP1;P2;durP2;ratioP2
51499;SDS011;39101;53.478;6.158;2023-02-28T00:01:28;7.67;;;1.27;;
51499;SDS011;39101;53.478;6.158;2023-02-28T00:03:56;9.23;;;1.23;;
51499;SDS011;39101;53.478;6.158;2023-02-28T00:06:24;9.00;;;1.50;;
51499;SDS011;39101;53.478;6.158;2023-02-28T00:08:50;10.23;;;1.50;;
51499;SDS011;39101;53.478;6.158;2023-02-28T00:11:16;7.23;;;1.53;;
51499;SDS011;39101;53.478;6.158;2023-02-28T00:13:43;9.80;;;1.23;;
51499;SDS011;39101;53.478;6.158;2023-02-28T00:16:13;7.53;;;1.40;;
51499;SDS011;39101;53.478;6.158;2023-02-28T00:18:48;8.73;;;1.03;;
51499;SDS011;39101;53.478;6.158;2023-02-28T00:21:14;8.17;;;1.57;;
51499;SDS011;39101;53.478;6.158;2023-02-28T00:23:44;9.37;;;1.10;;
51499;SDS011;39101;53.478;6.158;2023-02-28T00:26:10;9.70;;;1.73;;
51499;SDS011;39101;53.478;6.158;2023-02-28T00:28:36;5.77;;;0.80;;
51499;SDS011;39101;53.478;6.158;2023-02-28T00:31:02;5.00;;;1.17;;
51499;SDS011;39101;53.478;6.158;2023-02-28T00:33:28;8.47;;;1.30;;
51499;SDS011;39101;53.478;6.158;2023-02-28T00:36:05;7.13;;;1.10;;
51499;SDS011;39101;53.478;6.158;2023-02-28T00:38:33;5.53;;;1.00;;
51499;SDS011;39101;53.478;6.158;2023-02-28T00:40:58;6.83;;;2.23;;
51499;SDS011;39101;53.478;6.158;2023-02-28T00:43:35;6.87;;;1.10;;
51499;SDS011;39101;53.478;6.158;2023-02-28T00:46:09;9.10;;;1.10;;
51499;SDS011;39101;53.478;6.158;2023-02-28T00:48:38;4.27;;;1.30;;
51499;SDS011;39101;53.478;6.158;2023-02-28T00:51:04;7.30;;;1.20;;
51499;SDS011;39101;53.478;6.158;2023-02-28T00:53:30;9.00;;;1.40;;
51499;SDS011;39101;53.478;6.158;2023-02-28T00:55:57;11.07;;;1.10;;
51499;SDS011;39101;53.478;6.158;2023-02-28T00:58:23;11.57;;;1.30;;
51499;SDS011;39101;53.478;6.158;2023-02-28T01:00:50;10.47;;;0.90;;
51499;SDS011;39101;53.478;6.158;2023-02-28T01:03:21;20.63;;;3.42;;
51499;SDS011;39101;53.478;6.158;2023-02-28T01:05:47;9.60;;;1.93;;
51499;SDS011;39101;53.478;6.158;2023-02-28T01:08:13;7.23;;;1.47;;
51499;SDS011;39101;53.478;6.158;2023-02-28T01:10:39;5.90;;;1.10;;
51499;SDS011;39101;53.478;6.158;2023-02-28T01:13:05;4.00;;;1.00;;
51499;SDS011;39101;53.478;6.158;2023-02-28T01:15:31;5.87;;;1.43;;
51499;SDS011;39101;53.478;6.158;2023-02-28T01:17:58;10.30;;;1.50;;
51499;SDS011;39101;53.478;6.158;2023-02-28T01:20:25;9.53;;;1.23;;
51499;SDS011;39101;53.478;6.158;2023-02-28T01:22:51;6.67;;;1.00;;
51499;SDS011;39101;53.478;6.158;2023-02-28T01:25:16;6.40;;;1.47;;
51499;SDS011;39101;53.478;6.158;2023-02-28T01:27:42;6.80;;;1.20;;
51499;SDS011;39101;53.478;6.158;2023-02-28T01:30:08;7.17;;;1.07;;
51499;SDS011;39101;53.478;6.158;2023-02-28T01:32:35;4.77;;;0.87;;
51499;SDS011;39101;53.478;6.158;2023-02-28T01:35:01;11.47;;;1.70;;
51499;SDS011;39101;53.478;6.158;2023-02-28T01:37:28;4.83;;;1.00;;
51499;SDS011;39101;53.478;6.158;2023-02-28T01:39:54;9.63;;;1.53;;
51499;SDS011;39101;53.478;6.158;2023-02-28T01:42:22;9.73;;;2.03;;
51499;SDS011;39101;53.478;6.158;2023-02-28T01:47:20;8.77;;;1.33;;
51499;SDS011;39101;53.478;6.158;2023-02-28T01:49:48;8.53;;;1.13;;
51499;SDS011;39101;53.478;6.158;2023-02-28T01:52:18;5.68;;;1.35;;
51499;SDS011;39101;53.478;6.158;2023-02-28T01:54:50;9.35;;;1.13;;
51499;SDS011;39101;53.478;6.158;2023-02-28T01:57:24;8.97;;;2.13;;
51499;SDS011;39101;53.478;6.158;2023-02-28T01:59:57;5.80;;;1.57;;
51499;SDS011;39101;53.478;6.158;2023-02-28T02:02:29;7.43;;;1.37;;
51499;SDS011;39101;53.478;6.158;2023-02-28T02:04:57;9.27;;;1.23;;
51499;SDS011;39101;53.478;6.158;2023-02-28T02:07:32;7.47;;;1.37;;
51499;SDS011;39101;53.478;6.158;2023-02-28T02:10:10;3.00;;;0.90;;
51499;SDS011;39101;53.478;6.158;2023-02-28T02:19:41;10.07;;;1.43;;
51499;SDS011;39101;53.478;6.158;2023-02-28T02:21:54;19.17;;;1.60;;
51499;SDS011;39101;53.478;6.158;2023-02-28T02:36:38;8.87;;;1.37;;
51499;SDS011;39101;53.478;6.158;2023-02-28T02:39:14;14.50;;;2.63;;
51499;SDS011;39101;53.478;6.158;2023-02-28T02:42:01;10.10;;;1.77;;
51499;SDS011;39101;53.478;6.158;2023-02-28T02:44:49;14.07;;;1.77;;
51499;SDS011;39101;53.478;6.158;2023-02-28T02:47:21;9.93;;;2.27;;
51499;SDS011;39101;53.478;6.158;2023-02-28T02:49:52;8.63;;;1.30;;
51499;SDS011;39101;53.478;6.158;2023-02-28T02:52:24;8.57;;;1.33;;
51499;SDS011;39101;53.478;6.158;2023-02-28T02:55:07;5.63;;;1.20;;
51499;SDS011;39101;53.478;6.158;2023-02-28T02:57:42;9.63;;;1.23;;
51499;SDS011;39101;53.478;6.158;2023-02-28T03:00:11;8.80;;;1.80;;
51499;SDS011;39101;53.478;6.158;2023-02-28T03:02:38;16.17;;;1.50;;
51499;SDS011;39101;53.478;6.158;2023-02-28T03:05:12;14.47;;;2.00;;
51499;SDS011;39101;53.478;6.158;2023-02-28T03:07:44;11.33;;;1.33;;
51499;SDS011;39101;53.478;6.158;2023-02-28T03:16:35;13.67;;;1.40;;
51499;SDS011;39101;53.478;6.158;2023-02-28T03:27:09;6.27;;;1.03;;
51499;SDS011;39101;53.478;6.158;2023-02-28T03:30:05;5.27;;;1.13;;
51499;SDS011;39101;53.478;6.158;2023-02-28T03:32:37;7.10;;;1.73;;
51499;SDS011;39101;53.478;6.158;2023-02-28T03:35:37;10.97;;;1.37;;
51499;SDS011;39101;53.478;6.158;2023-02-28T03:38:38;6.97;;;1.37;;
51499;SDS011;39101;53.478;6.158;2023-02-28T03:42:09;7.03;;;1.27;;
51499;SDS011;39101;53.478;6.158;2023-02-28T03:44:37;6.40;;;1.50;;
51499;SDS011;39101;53.478;6.158;2023-02-28T03:49:57;10.00;;;1.70;;
51499;SDS011;39101;53.478;6.158;2023-02-28T03:52:33;9.93;;;1.47;;
51499;SDS011;39101;53.478;6.158;2023-02-28T03:55:35;12.13;;;1.30;;
51499;SDS011;39101;53.478;6.158;2023-02-28T03:58:08;12.03;;;1.10;;
51499;SDS011;39101;53.478;6.158;2023-02-28T04:01:01;12.37;;;1.80;;
51499;SDS011;39101;53.478;6.158;2023-02-28T04:03:36;14.90;;;1.73;;
51499;SDS011;39101;53.478;6.158;2023-02-28T04:06:07;6.70;;;1.25;;
51499;SDS011;39101;53.478;6.158;2023-02-28T04:08:38;9.40;;;1.27;;
51499;SDS011;39101;53.478;6.158;2023-02-28T04:11:05;10.60;;;2.47;;
51499;SDS011;39101;53.478;6.158;2023-02-28T04:16:10;6.83;;;1.00;;
51499;SDS011;39101;53.478;6.158;2023-02-28T04:18:40;8.83;;;1.23;;
51499;SDS011;39101;53.478;6.158;2023-02-28T04:21:10;8.10;;;1.60;;
51499;SDS011;39101;53.478;6.158;2023-02-28T04:23:36;6.50;;;1.30;;
51499;SDS011;39101;53.478;6.158;2023-02-28T04:26:03;8.17;;;1.40;;
51499;SDS011;39101;53.478;6.158;2023-02-28T04:28:32;8.52;;;1.60;;
51499;SDS011;39101;53.478;6.158;2023-02-28T04:31:02;9.17;;;1.40;;
51499;SDS011;39101;53.478;6.158;2023-02-28T04:36:01;16.53;;;1.50;;
51499;SDS011;39101;53.478;6.158;2023-02-28T04:38:34;6.13;;;1.13;;
51499;SDS011;39101;53.478;6.158;2023-02-28T04:41:02;9.90;;;1.30;;
51499;SDS011;39101;53.478;6.158;2023-02-28T04:43:30;10.77;;;1.30;;
51499;SDS011;39101;53.478;6.158;2023-02-28T04:45:57;13.13;;;1.60;;
51499;SDS011;39101;53.478;6.158;2023-02-28T04:48:28;11.27;;;1.80;;
51499;SDS011;39101;53.478;6.158;2023-02-28T04:50:59;8.63;;;2.27;;
51499;SDS011;39101;53.478;6.158;2023-02-28T04:53:29;15.90;;;1.77;;
51499;SDS011;39101;53.478;6.158;2023-02-28T04:55:57;7.77;;;1.47;;
51499;SDS011;39101;53.478;6.158;2023-02-28T04:58:23;8.60;;;1.20;;
51499;SDS011;39101;53.478;6.158;2023-02-28T05:01:03;8.50;;;1.33;;
51499;SDS011;39101;53.478;6.158;2023-02-28T05:03:40;7.57;;;1.40;;
51499;SDS011;39101;53.478;6.158;2023-02-28T05:06:10;12.87;;;2.70;;
51499;SDS011;39101;53.478;6.158;2023-02-28T05:08:37;15.83;;;2.10;;
51499;SDS011;39101;53.478;6.158;2023-02-28T05:11:03;15.00;;;2.10;;
51499;SDS011;39101;53.478;6.158;2023-02-28T05:13:31;15.63;;;2.07;;
51499;SDS011;39101;53.478;6.158;2023-02-28T05:15:57;9.47;;;1.40;;
51499;SDS011;39101;53.478;6.158;2023-02-28T05:18:22;17.53;;;2.00;;
51499;SDS011;39101;53.478;6.158;2023-02-28T05:20:48;13.37;;;2.00;;
51499;SDS011;39101;53.478;6.158;2023-02-28T05:23:14;14.97;;;1.57;;
51499;SDS011;39101;53.478;6.158;2023-02-28T05:25:41;13.77;;;2.77;;
51499;SDS011;39101;53.478;6.158;2023-02-28T05:28:07;29.03;;;2.23;;
51499;SDS011;39101;53.478;6.158;2023-02-28T05:30:33;10.90;;;2.07;;
51499;SDS011;39101;53.478;6.158;2023-02-28T05:32:58;11.13;;;1.80;;
51499;SDS011;39101;53.478;6.158;2023-02-28T05:35:25;15.57;;;2.27;;
51499;SDS011;39101;53.478;6.158;2023-02-28T05:37:52;19.63;;;1.97;;
51499;SDS011;39101;53.478;6.158;2023-02-28T05:40:18;17.87;;;3.07;;
51499;SDS011;39101;53.478;6.158;2023-02-28T05:42:45;13.33;;;1.60;;
51499;SDS011;39101;53.478;6.158;2023-02-28T05:45:12;8.57;;;1.57;;
51499;SDS011;39101;53.478;6.158;2023-02-28T05:47:37;7.20;;;1.53;;
51499;SDS011;39101;53.478;6.158;2023-02-28T05:50:04;16.77;;;2.37;;
51499;SDS011;39101;53.478;6.158;2023-02-28T05:52:49;10.23;;;1.43;;
51499;SDS011;39101;53.478;6.158;2023-02-28T05:55:17;9.67;;;1.50;;
51499;SDS011;39101;53.478;6.158;2023-02-28T05:57:43;12.70;;;1.70;;
51499;SDS011;39101;53.478;6.158;2023-02-28T06:00:09;11.07;;;1.67;;
51499;SDS011;39101;53.478;6.158;2023-02-28T06:02:35;7.90;;;1.60;;
51499;SDS011;39101;53.478;6.158;2023-02-28T06:05:04;13.53;;;2.13;;
51499;SDS011;39101;53.478;6.158;2023-02-28T06:07:30;15.13;;;2.30;;
51499;SDS011;39101;53.478;6.158;2023-02-28T06:09:56;10.93;;;1.87;;
51499;SDS011;39101;53.478;6.158;2023-02-28T06:12:21;23.57;;;3.30;;
51499;SDS011;39101;53.478;6.158;2023-02-28T06:14:47;16.17;;;2.10;;
51499;SDS011;39101;53.478;6.158;2023-02-28T06:17:13;15.20;;;2.33;;
51499;SDS011;39101;53.478;6.158;2023-02-28T06:19:38;16.63;;;2.10;;
51499;SDS011;39101;53.478;6.158;2023-02-28T06:22:08;15.27;;;3.10;;
51499;SDS011;39101;53.478;6.158;2023-02-28T06:24:33;18.10;;;3.40;;
51499;SDS011;39101;53.478;6.158;2023-02-28T06:27:01;18.57;;;2.67;;
51499;SDS011;39101;53.478;6.158;2023-02-28T06:29:33;14.27;;;2.70;;
51499;SDS011;39101;53.478;6.158;2023-02-28T06:32:05;13.60;;;2.93;;
51499;SDS011;39101;53.478;6.158;2023-02-28T06:34:32;14.67;;;2.67;;
51499;SDS011;39101;53.478;6.158;2023-02-28T06:37:01;10.70;;;2.20;;
51499;SDS011;39101;53.478;6.158;2023-02-28T06:39:46;13.83;;;1.80;;
51499;SDS011;39101;53.478;6.158;2023-02-28T06:42:13;17.70;;;3.57;;
51499;SDS011;39101;53.478;6.158;2023-02-28T06:44:39;15.30;;;3.07;;
51499;SDS011;39101;53.478;6.158;2023-02-28T06:47:08;10.17;;;4.10;;
51499;SDS011;39101;53.478;6.158;2023-02-28T06:49:35;9.97;;;3.50;;
51499;SDS011;39101;53.478;6.158;2023-02-28T06:52:01;11.07;;;3.77;;
51499;SDS011;39101;53.478;6.158;2023-02-28T06:54:28;11.80;;;4.07;;
51499;SDS011;39101;53.478;6.158;2023-02-28T06:56:53;8.97;;;4.00;;
51499;SDS011;39101;53.478;6.158;2023-02-28T06:59:19;9.60;;;4.03;;
51499;SDS011;39101;53.478;6.158;2023-02-28T07:01:45;12.87;;;4.33;;
51499;SDS011;39101;53.478;6.158;2023-02-28T07:04:11;12.60;;;7.80;;
51499;SDS011;39101;53.478;6.158;2023-02-28T07:06:38;14.67;;;7.87;;
51499;SDS011;39101;53.478;6.158;2023-02-28T07:09:04;11.43;;;8.07;;
51499;SDS011;39101;53.478;6.158;2023-02-28T07:11:30;11.93;;;7.93;;
51499;SDS011;39101;53.478;6.158;2023-02-28T07:13:56;11.63;;;7.10;;
51499;SDS011;39101;53.478;6.158;2023-02-28T07:16:23;9.63;;;7.57;;
51499;SDS011;39101;53.478;6.158;2023-02-28T07:18:52;13.00;;;7.50;;
51499;SDS011;39101;53.478;6.158;2023-02-28T07:21:22;11.27;;;7.93;;
51499;SDS011;39101;53.478;6.158;2023-02-28T07:23:51;10.03;;;7.23;;
51499;SDS011;39101;53.478;6.158;2023-02-28T07:26:18;13.47;;;7.83;;
51499;SDS011;39101;53.478;6.158;2023-02-28T07:28:45;12.20;;;7.50;;
51499;SDS011;39101;53.478;6.158;2023-02-28T07:31:13;10.23;;;6.80;;
51499;SDS011;39101;53.478;6.158;2023-02-28T07:33:42;12.67;;;7.40;;
51499;SDS011;39101;53.478;6.158;2023-02-28T07:36:13;8.73;;;6.50;;
51499;SDS011;39101;53.478;6.158;2023-02-28T07:38:41;7.80;;;5.97;;
51499;SDS011;39101;53.478;6.158;2023-02-28T07:41:08;7.73;;;6.27;;
51499;SDS011;39101;53.478;6.158;2023-02-28T07:43:36;9.47;;;6.90;;
51499;SDS011;39101;53.478;6.158;2023-02-28T07:46:06;9.53;;;7.07;;
51499;SDS011;39101;53.478;6.158;2023-02-28T07:48:51;9.47;;;6.33;;
51499;SDS011;39101;53.478;6.158;2023-02-28T07:51:18;13.70;;;6.93;;
51499;SDS011;39101;53.478;6.158;2023-02-28T07:53:44;9.13;;;6.47;;
51499;SDS011;39101;53.478;6.158;2023-02-28T07:56:13;8.03;;;6.17;;
51499;SDS011;39101;53.478;6.158;2023-02-28T07:58:38;10.30;;;7.13;;
51499;SDS011;39101;53.478;6.158;2023-02-28T08:01:07;15.67;;;7.97;;
51499;SDS011;39101;53.478;6.158;2023-02-28T08:03:34;10.80;;;8.35;;
51499;SDS011;39101;53.478;6.158;2023-02-28T08:06:01;9.57;;;6.83;;
51499;SDS011;39101;53.478;6.158;2023-02-28T08:08:31;12.48;;;7.57;;
51499;SDS011;39101;53.478;6.158;2023-02-28T08:11:01;9.17;;;6.90;;
51499;SDS011;39101;53.478;6.158;2023-02-28T08:13:29;10.00;;;7.30;;
51499;SDS011;39101;53.478;6.158;2023-02-28T08:16:01;9.23;;;6.10;;
51499;SDS011;39101;53.478;6.158;2023-02-28T08:18:27;9.30;;;6.40;;
51499;SDS011;39101;53.478;6.158;2023-02-28T08:20:53;9.67;;;6.13;;
51499;SDS011;39101;53.478;6.158;2023-02-28T08:23:19;11.03;;;7.23;;
51499;SDS011;39101;53.478;6.158;2023-02-28T08:25:44;10.97;;;8.03;;
51499;SDS011;39101;53.478;6.158;2023-02-28T08:28:20;10.60;;;8.00;;
51499;SDS011;39101;53.478;6.158;2023-02-28T08:30:47;12.23;;;8.33;;
51499;SDS011;39101;53.478;6.158;2023-02-28T08:33:12;10.50;;;7.97;;
51499;SDS011;39101;53.478;6.158;2023-02-28T08:35:38;13.33;;;8.87;;
51499;SDS011;39101;53.478;6.158;2023-02-28T08:38:04;14.13;;;9.57;;
51499;SDS011;39101;53.478;6.158;2023-02-28T08:40:29;15.07;;;9.40;;
51499;SDS011;39101;53.478;6.158;2023-02-28T08:42:57;12.77;;;9.53;;
51499;SDS011;39101;53.478;6.158;2023-02-28T08:45:25;15.57;;;10.57;;
51499;SDS011;39101;53.478;6.158;2023-02-28T08:47:54;12.47;;;9.00;;
51499;SDS011;39101;53.478;6.158;2023-02-28T08:50:20;13.10;;;9.23;;
51499;SDS011;39101;53.478;6.158;2023-02-28T08:52:46;12.97;;;8.30;;
51499;SDS011;39101;53.478;6.158;2023-02-28T08:55:12;12.20;;;8.00;;
51499;SDS011;39101;53.478;6.158;2023-02-28T08:57:38;11.83;;;8.17;;
51499;SDS011;39101;53.478;6.158;2023-02-28T09:00:04;8.87;;;6.63;;
51499;SDS011;39101;53.478;6.158;2023-02-28T09:02:32;10.60;;;7.53;;
51499;SDS011;39101;53.478;6.158;2023-02-28T09:04:58;9.40;;;6.83;;
51499;SDS011;39101;53.478;6.158;2023-02-28T09:07:24;10.03;;;7.03;;
51499;SDS011;39101;53.478;6.158;2023-02-28T09:09:49;9.33;;;6.60;;
51499;SDS011;39101;53.478;6.158;2023-02-28T09:12:26;10.37;;;7.47;;
51499;SDS011;39101;53.478;6.158;2023-02-28T09:14:56;8.87;;;6.93;;
51499;SDS011;39101;53.478;6.158;2023-02-28T09:17:22;10.67;;;7.63;;
51499;SDS011;39101;53.478;6.158;2023-02-28T09:19:48;9.13;;;6.73;;
51499;SDS011;39101;53.478;6.158;2023-02-28T09:22:14;8.93;;;6.87;;
51499;SDS011;39101;53.478;6.158;2023-02-28T09:24:40;9.03;;;6.50;;
51499;SDS011;39101;53.478;6.158;2023-02-28T09:27:05;9.73;;;7.37;;
51499;SDS011;39101;53.478;6.158;2023-02-28T09:29:32;9.13;;;6.57;;
51499;SDS011;39101;53.478;6.158;2023-02-28T09:31:58;10.20;;;7.13;;
51499;SDS011;39101;53.478;6.158;2023-02-28T09:34:26;10.97;;;7.60;;
51499;SDS011;39101;53.478;6.158;2023-02-28T09:36:53;9.33;;;7.00;;
51499;SDS011;39101;53.478;6.158;2023-02-28T09:39:21;10.27;;;7.53;;
51499;SDS011;39101;53.478;6.158;2023-02-28T09:41:49;10.90;;;8.20;;
51499;SDS011;39101;53.478;6.158;2023-02-28T09:44:29;11.05;;;7.82;;
51499;SDS011;39101;53.478;6.158;2023-02-28T09:47:13;11.57;;;8.27;;
51499;SDS011;39101;53.478;6.158;2023-02-28T09:49:46;10.60;;;7.63;;
51499;SDS011;39101;53.478;6.158;2023-02-28T09:52:20;8.77;;;6.40;;
51499;SDS011;39101;53.478;6.158;2023-02-28T09:54:59;10.75;;;7.50;;
51499;SDS011;39101;53.478;6.158;2023-02-28T09:57:44;9.33;;;6.43;;
51499;SDS011;39101;53.478;6.158;2023-02-28T10:00:19;9.93;;;7.47;;
51499;SDS011;39101;53.478;6.158;2023-02-28T10:06:28;10.10;;;7.00;;
51499;SDS011;39101;53.478;6.158;2023-02-28T10:09:03;11.47;;;7.40;;
51499;SDS011;39101;53.478;6.158;2023-02-28T10:11:38;10.53;;;7.93;;
51499;SDS011;39101;53.478;6.158;2023-02-28T10:14:19;9.83;;;7.27;;
51499;SDS011;39101;53.478;6.158;2023-02-28T10:22:24;10.67;;;6.93;;
51499;SDS011;39101;53.478;6.158;2023-02-28T10:25:24;9.53;;;7.10;;
51499;SDS011;39101;53.478;6.158;2023-02-28T10:28:00;11.03;;;7.50;;
51499;SDS011;39101;53.478;6.158;2023-02-28T10:30:36;10.43;;;7.13;;
51499;SDS011;39101;53.478;6.158;2023-02-28T10:33:19;8.53;;;6.30;;
51499;SDS011;39101;53.478;6.158;2023-02-28T10:35:50;10.95;;;7.68;;
51499;SDS011;39101;53.478;6.158;2023-02-28T10:38:19;8.73;;;6.27;;
51499;SDS011;39101;53.478;6.158;2023-02-28T10:40:47;11.10;;;6.85;;
51499;SDS011;39101;53.478;6.158;2023-02-28T10:43:33;9.23;;;6.20;;
51499;SDS011;39101;53.478;6.158;2023-02-28T10:49:00;10.43;;;7.80;;
51499;SDS011;39101;53.478;6.158;2023-02-28T10:51:34;9.17;;;6.23;;
51499;SDS011;39101;53.478;6.158;2023-02-28T10:54:02;10.63;;;6.60;;
51499;SDS011;39101;53.478;6.158;2023-02-28T10:56:30;9.97;;;6.80;;
51499;SDS011;39101;53.478;6.158;2023-02-28T11:01:35;9.33;;;6.50;;
51499;SDS011;39101;53.478;6.158;2023-02-28T11:04:16;9.20;;;6.53;;
51499;SDS011;39101;53.478;6.158;2023-02-28T11:06:44;11.03;;;6.63;;
51499;SDS011;39101;53.478;6.158;2023-02-28T11:12:04;11.13;;;7.83;;
51499;SDS011;39101;53.478;6.158;2023-02-28T11:14:46;8.07;;;5.75;;
51499;SDS011;39101;53.478;6.158;2023-02-28T11:17:18;9.67;;;5.60;;
51499;SDS011;39101;53.478;6.158;2023-02-28T11:19:47;9.47;;;6.03;;
51499;SDS011;39101;53.478;6.158;2023-02-28T11:22:29;9.87;;;6.60;;
51499;SDS011;39101;53.478;6.158;2023-02-28T11:25:06;12.83;;;6.10;;
51499;SDS011;39101;53.478;6.158;2023-02-28T11:30:32;8.90;;;6.15;;
51499;SDS011;39101;53.478;6.158;2023-02-28T11:33:16;12.23;;;6.97;;
51499;SDS011;39101;53.478;6.158;2023-02-28T11:36:02;10.87;;;6.80;;
51499;SDS011;39101;53.478;6.158;2023-02-28T11:38:36;9.83;;;6.53;;
51499;SDS011;39101;53.478;6.158;2023-02-28T11:41:22;10.53;;;7.23;;
51499;SDS011;39101;53.478;6.158;2023-02-28T11:46:41;8.43;;;5.90;;
51499;SDS011;39101;53.478;6.158;2023-02-28T11:57:56;10.80;;;6.23;;
51499;SDS011;39101;53.478;6.158;2023-02-28T12:03:25;8.10;;;5.37;;
51499;SDS011;39101;53.478;6.158;2023-02-28T12:06:09;9.13;;;6.13;;
51499;SDS011;39101;53.478;6.158;2023-02-28T12:11:37;7.30;;;4.60;;
51499;SDS011;39101;53.478;6.158;2023-02-28T12:14:14;7.87;;;5.70;;
51499;SDS011;39101;53.478;6.158;2023-02-28T12:19:48;8.93;;;5.83;;
51499;SDS011;39101;53.478;6.158;2023-02-28T12:22:41;7.83;;;5.17;;
51499;SDS011;39101;53.478;6.158;2023-02-28T12:28:14;9.73;;;5.20;;
51499;SDS011;39101;53.478;6.158;2023-02-28T12:33:45;7.83;;;4.63;;
51499;SDS011;39101;53.478;6.158;2023-02-28T12:36:39;6.70;;;4.53;;
51499;SDS011;39101;53.478;6.158;2023-02-28T12:39:52;6.10;;;4.55;;
51499;SDS011;39101;53.478;6.158;2023-02-28T12:42:29;8.67;;;5.30;;
51499;SDS011;39101;53.478;6.158;2023-02-28T12:47:42;7.60;;;4.53;;
51499;SDS011;39101;53.478;6.158;2023-02-28T12:50:11;8.73;;;5.27;;
51499;SDS011;39101;53.478;6.158;2023-02-28T12:52:40;9.10;;;5.27;;
51499;SDS011;39101;53.478;6.158;2023-02-28T12:55:17;9.00;;;4.83;;
51499;SDS011;39101;53.478;6.158;2023-02-28T12:58:08;8.82;;;5.00;;
51499;SDS011;39101;53.478;6.158;2023-02-28T13:09:16;10.47;;;6.60;;
51499;SDS011;39101;53.478;6.158;2023-02-28T13:11:46;10.90;;;7.30;;
51499;SDS011;39101;53.478;6.158;2023-02-28T13:14:36;9.13;;;6.47;;
51499;SDS011;39101;53.478;6.158;2023-02-28T13:19:44;13.27;;;6.53;;
51499;SDS011;39101;53.478;6.158;2023-02-28T13:22:39;9.47;;;6.40;;
51499;SDS011;39101;53.478;6.158;2023-02-28T13:25:12;10.47;;;6.03;;
51499;SDS011;39101;53.478;6.158;2023-02-28T13:28:11;9.47;;;6.00;;
51499;SDS011;39101;53.478;6.158;2023-02-28T13:38:48;11.27;;;6.20;;
51499;SDS011;39101;53.478;6.158;2023-02-28T13:46:27;8.43;;;6.17;;
51499;SDS011;39101;53.478;6.158;2023-02-28T13:54:39;11.83;;;6.33;;
51499;SDS011;39101;53.478;6.158;2023-02-28T14:00:34;10.07;;;6.80;;
51499;SDS011;39101;53.478;6.158;2023-02-28T14:05:36;10.33;;;6.93;;
51499;SDS011;39101;53.478;6.158;2023-02-28T14:08:17;8.30;;;6.33;;
51499;SDS011;39101;53.478;6.158;2023-02-28T14:10:50;9.67;;;6.30;;
51499;SDS011;39101;53.478;6.158;2023-02-28T14:16:17;9.10;;;6.07;;
51499;SDS011;39101;53.478;6.158;2023-02-28T14:18:51;10.63;;;6.30;;
51499;SDS011;39101;53.478;6.158;2023-02-28T14:22:04;10.80;;;6.53;;
51499;SDS011;39101;53.478;6.158;2023-02-28T14:30:37;8.83;;;5.50;;
51499;SDS011;39101;53.478;6.158;2023-02-28T14:33:18;9.47;;;5.83;;
51499;SDS011;39101;53.478;6.158;2023-02-28T14:38:40;9.80;;;6.03;;
51499;SDS011;39101;53.478;6.158;2023-02-28T14:41:24;9.00;;;5.97;;
51499;SDS011;39101;53.478;6.158;2023-02-28T14:43:59;9.73;;;6.43;;
51499;SDS011;39101;53.478;6.158;2023-02-28T14:46:38;10.00;;;6.13;;
51499;SDS011;39101;53.478;6.158;2023-02-28T14:49:06;12.23;;;6.73;;
51499;SDS011;39101;53.478;6.158;2023-02-28T14:51:50;11.03;;;7.20;;
51499;SDS011;39101;53.478;6.158;2023-02-28T14:54:29;8.87;;;6.13;;
51499;SDS011;39101;53.478;6.158;2023-02-28T14:56:54;8.10;;;6.20;;
51499;SDS011;39101;53.478;6.158;2023-02-28T14:59:32;9.93;;;6.37;;
51499;SDS011;39101;53.478;6.158;2023-02-28T15:02:15;10.20;;;7.10;;
51499;SDS011;39101;53.478;6.158;2023-02-28T15:04:54;10.43;;;6.07;;
51499;SDS011;39101;53.478;6.158;2023-02-28T15:07:38;8.23;;;5.97;;
51499;SDS011;39101;53.478;6.158;2023-02-28T15:12:36;9.93;;;6.33;;
51499;SDS011;39101;53.478;6.158;2023-02-28T15:15:04;9.03;;;6.43;;
51499;SDS011;39101;53.478;6.158;2023-02-28T15:17:34;9.70;;;6.30;;
51499;SDS011;39101;53.478;6.158;2023-02-28T15:20:00;10.03;;;6.90;;
51499;SDS011;39101;53.478;6.158;2023-02-28T15:22:33;10.37;;;6.43;;
51499;SDS011;39101;53.478;6.158;2023-02-28T15:25:02;10.47;;;6.17;;
51499;SDS011;39101;53.478;6.158;2023-02-28T15:27:32;10.90;;;6.90;;
51499;SDS011;39101;53.478;6.158;2023-02-28T15:30:06;8.10;;;6.60;;
51499;SDS011;39101;53.478;6.158;2023-02-28T15:32:35;11.10;;;7.13;;
51499;SDS011;39101;53.478;6.158;2023-02-28T15:37:56;13.13;;;7.23;;
51499;SDS011;39101;53.478;6.158;2023-02-28T15:40:40;9.83;;;6.90;;
51499;SDS011;39101;53.478;6.158;2023-02-28T15:43:17;8.87;;;6.40;;
51499;SDS011;39101;53.478;6.158;2023-02-28T15:50:57;9.80;;;6.13;;
51499;SDS011;39101;53.478;6.158;2023-02-28T15:53:28;9.47;;;6.83;;
51499;SDS011;39101;53.478;6.158;2023-02-28T15:56:05;9.15;;;7.25;;
51499;SDS011;39101;53.478;6.158;2023-02-28T15:59:05;9.80;;;7.00;;
51499;SDS011;39101;53.478;6.158;2023-02-28T16:01:36;8.73;;;6.90;;
51499;SDS011;39101;53.478;6.158;2023-02-28T16:04:04;10.90;;;6.40;;
51499;SDS011;39101;53.478;6.158;2023-02-28T16:06:44;10.17;;;6.70;;
51499;SDS011;39101;53.478;6.158;2023-02-28T16:09:26;9.93;;;6.00;;
51499;SDS011;39101;53.478;6.158;2023-02-28T16:11:53;8.33;;;6.30;;
51499;SDS011;39101;53.478;6.158;2023-02-28T16:14:23;11.43;;;6.93;;
51499;SDS011;39101;53.478;6.158;2023-02-28T16:17:06;15.03;;;12.30;;
51499;SDS011;39101;53.478;6.158;2023-02-28T16:19:41;21.50;;;15.77;;
51499;SDS011;39101;53.478;6.158;2023-02-28T16:22:08;12.37;;;9.43;;
51499;SDS011;39101;53.478;6.158;2023-02-28T16:24:54;11.33;;;7.97;;
51499;SDS011;39101;53.478;6.158;2023-02-28T16:27:33;9.60;;;6.87;;
51499;SDS011;39101;53.478;6.158;2023-02-28T16:30:02;13.03;;;7.47;;
51499;SDS011;39101;53.478;6.158;2023-02-28T16:32:30;9.43;;;6.90;;
51499;SDS011;39101;53.478;6.158;2023-02-28T16:35:00;12.73;;;10.07;;
51499;SDS011;39101;53.478;6.158;2023-02-28T16:37:26;12.57;;;8.07;;
51499;SDS011;39101;53.478;6.158;2023-02-28T16:40:02;19.70;;;17.23;;
51499;SDS011;39101;53.478;6.158;2023-02-28T16:42:28;23.17;;;20.67;;
51499;SDS011;39101;53.478;6.158;2023-02-28T16:44:56;20.90;;;18.70;;
51499;SDS011;39101;53.478;6.158;2023-02-28T16:47:23;16.70;;;13.87;;
51499;SDS011;39101;53.478;6.158;2023-02-28T16:49:48;16.97;;;15.03;;
51499;SDS011;39101;53.478;6.158;2023-02-28T16:52:14;18.53;;;13.60;;
51499;SDS011;39101;53.478;6.158;2023-02-28T16:54:41;24.40;;;15.23;;
51499;SDS011;39101;53.478;6.158;2023-02-28T16:57:18;21.57;;;16.27;;
51499;SDS011;39101;53.478;6.158;2023-02-28T16:59:49;34.53;;;28.00;;
51499;SDS011;39101;53.478;6.158;2023-02-28T17:02:21;32.83;;;27.17;;
51499;SDS011;39101;53.478;6.158;2023-02-28T17:04:47;33.43;;;27.70;;
51499;SDS011;39101;53.478;6.158;2023-02-28T17:07:13;29.87;;;26.70;;
51499;SDS011;39101;53.478;6.158;2023-02-28T17:09:41;25.97;;;23.40;;
51499;SDS011;39101;53.478;6.158;2023-02-28T17:12:08;29.00;;;26.30;;
51499;SDS011;39101;53.478;6.158;2023-02-28T17:14:34;35.67;;;32.40;;
51499;SDS011;39101;53.478;6.158;2023-02-28T17:17:00;34.97;;;31.37;;
51499;SDS011;39101;53.478;6.158;2023-02-28T17:19:26;31.73;;;27.40;;
51499;SDS011;39101;53.478;6.158;2023-02-28T17:21:53;34.40;;;30.83;;
51499;SDS011;39101;53.478;6.158;2023-02-28T17:24:19;34.83;;;31.07;;
51499;SDS011;39101;53.478;6.158;2023-02-28T17:26:45;29.47;;;23.73;;
51499;SDS011;39101;53.478;6.158;2023-02-28T17:29:13;23.60;;;20.97;;
51499;SDS011;39101;53.478;6.158;2023-02-28T17:31:41;19.97;;;17.87;;
51499;SDS011;39101;53.478;6.158;2023-02-28T17:34:07;15.80;;;12.10;;
51499;SDS011;39101;53.478;6.158;2023-02-28T17:36:33;14.87;;;11.13;;
51499;SDS011;39101;53.478;6.158;2023-02-28T17:39:00;13.80;;;9.60;;